createdAt,value
2018-04-09T00:00:51.825Z,42.97
2018-04-09T00:03:19.319Z,53.70
2018-04-09T00:05:46.822Z,48.63
2018-04-09T00:08:14.347Z,50.27
2018-04-09T00:10:41.860Z,47.43
2018-04-09T00:13:09.361Z,52.23
2018-04-09T00:15:36.877Z,52.93
2018-04-09T00:18:04.359Z,51.03
2018-04-09T00:20:31.867Z,50.60
2018-04-09T00:22:59.364Z,54.17
2018-04-09T00:25:26.876Z,55.20
2018-04-09T00:27:54.387Z,52.73
2018-04-09T00:30:21.875Z,54.37
2018-04-09T00:32:49.404Z,57.93
2018-04-09T00:35:16.978Z,51.13
2018-04-09T00:37:44.466Z,55.60
2018-04-09T00:40:11.982Z,54.60
2018-04-09T00:42:39.542Z,53.63
2018-04-09T00:45:07.042Z,55.97
2018-04-09T00:47:34.545Z,54.10
2018-04-09T00:50:02.046Z,56.47
2018-04-09T00:52:29.517Z,55.77
2018-04-09T00:54:57.008Z,52.90
2018-04-09T00:57:24.514Z,52.40
2018-04-09T00:59:52.039Z,56.63
2018-04-09T01:02:19.571Z,55.87
2018-04-09T01:04:47.088Z,53.03
2018-04-09T01:07:14.587Z,51.73
2018-04-09T01:09:42.112Z,57.37
2018-04-09T01:12:09.593Z,55.60
2018-04-09T01:14:37.156Z,53.90
2018-04-09T01:17:04.626Z,53.37
2018-04-09T01:19:32.107Z,55.93
2018-04-09T01:21:59.594Z,59.20
2018-04-09T01:24:27.125Z,54.60
2018-04-09T01:26:54.632Z,59.30
2018-04-09T01:29:22.141Z,52.37
2018-04-09T01:31:49.654Z,57.27
2018-04-09T01:34:17.176Z,54.27
2018-04-09T01:36:44.689Z,58.80
2018-04-09T01:39:12.201Z,57.80
2018-04-09T01:41:39.704Z,56.77
2018-04-09T01:44:07.241Z,56.17
2018-04-09T01:46:34.745Z,57.53
2018-04-09T01:49:02.253Z,61.43
2018-04-09T01:51:29.802Z,60.27
2018-04-09T01:53:57.313Z,59.13
2018-04-09T01:56:24.951Z,59.23
2018-04-09T01:58:52.487Z,60.00
2018-04-09T02:01:19.990Z,62.73
2018-04-09T02:03:47.489Z,59.13
2018-04-09T02:06:14.992Z,60.43
2018-04-09T02:08:42.518Z,61.00
2018-04-09T02:11:10.020Z,58.10
2018-04-09T02:13:37.526Z,63.77
2018-04-09T02:16:05.024Z,66.63
2018-04-09T02:18:32.522Z,62.30
2018-04-09T02:21:00.012Z,61.43
2018-04-09T02:23:27.522Z,66.13
2018-04-09T02:25:55.031Z,60.90
2018-04-09T02:28:22.542Z,59.30
2018-04-09T02:30:50.126Z,64.00
2018-04-09T02:33:17.654Z,63.83
2018-04-09T02:35:45.163Z,59.10
2018-04-09T02:38:12.655Z,59.80
2018-04-09T02:40:40.268Z,65.60
2018-04-09T02:43:07.772Z,63.80
2018-04-09T02:45:35.276Z,59.23
2018-04-09T02:48:02.770Z,64.10
2018-04-09T02:50:30.274Z,61.07
2018-04-09T02:52:57.789Z,67.93
2018-04-09T02:55:25.289Z,63.23
2018-04-09T02:57:52.788Z,63.83
2018-04-09T03:00:20.273Z,66.50
2018-04-09T03:02:47.786Z,66.53
2018-04-09T03:05:15.389Z,61.70
2018-04-09T03:07:42.860Z,68.07
2018-04-09T03:10:10.416Z,65.70
2018-04-09T03:12:37.915Z,70.33
2018-04-09T03:15:05.415Z,68.57
2018-04-09T03:17:32.926Z,66.17
2018-04-09T03:20:00.448Z,62.97
2018-04-09T03:22:27.948Z,66.77
2018-04-09T03:24:55.451Z,66.40
2018-04-09T03:27:22.946Z,67.87
2018-04-09T03:29:50.443Z,65.90
2018-04-09T03:32:17.932Z,71.17
2018-04-09T03:34:45.417Z,64.47
2018-04-09T03:37:12.895Z,63.03
2018-04-09T03:39:40.366Z,61.67
2018-04-09T03:42:07.867Z,70.13
2018-04-09T03:44:35.354Z,66.63
2018-04-09T03:47:02.862Z,68.20
2018-04-09T03:49:30.358Z,69.07
2018-04-09T03:51:57.842Z,68.90
2018-04-09T03:54:25.382Z,73.33
2018-04-09T03:56:52.871Z,70.83
2018-04-09T03:59:20.381Z,71.70
2018-04-09T04:01:47.888Z,71.57
2018-04-09T04:04:15.373Z,69.00
2018-04-09T04:06:42.886Z,67.00
2018-04-09T04:09:10.424Z,71.67
2018-04-09T04:11:37.925Z,70.63
2018-04-09T04:14:05.448Z,70.70
2018-04-09T04:16:44.766Z,74.80
2018-04-09T04:19:23.966Z,73.60
2018-04-09T04:21:51.452Z,71.53
2018-04-09T04:24:18.934Z,71.83
2018-04-09T04:26:46.429Z,73.60
2018-04-09T04:29:13.941Z,73.33
2018-04-09T04:31:41.488Z,76.17
2018-04-09T04:34:08.976Z,72.10
2018-04-09T04:36:36.471Z,73.63
2018-04-09T04:39:04.025Z,71.90
2018-04-09T04:41:31.524Z,74.73
2018-04-09T04:43:59.077Z,85.53
2018-04-09T04:46:26.639Z,76.70
2018-04-09T04:48:54.146Z,74.43
2018-04-09T04:51:21.746Z,76.07
2018-04-09T04:53:49.263Z,73.57
2018-04-09T04:56:16.773Z,74.53
2018-04-09T04:58:44.277Z,77.67
2018-04-09T05:01:11.792Z,73.10
2018-04-09T05:03:39.298Z,84.87
2018-04-09T05:06:06.903Z,75.43
2018-04-09T05:08:34.426Z,69.70
2018-04-09T05:11:01.976Z,75.33
2018-04-09T05:13:29.492Z,73.50
2018-04-09T05:15:57.019Z,74.60
2018-04-09T05:18:24.566Z,75.20
2018-04-09T05:20:52.084Z,71.03
2018-04-09T05:23:19.603Z,68.10
2018-04-09T05:25:47.123Z,75.30
2018-04-09T05:28:14.610Z,74.07
2018-04-09T05:30:42.124Z,75.03
2018-04-09T05:33:09.634Z,78.67
2018-04-09T05:35:37.183Z,77.47
2018-04-09T05:38:04.686Z,80.47
2018-04-09T05:40:32.222Z,78.37
2018-04-09T05:42:59.724Z,73.67
2018-04-09T05:45:27.217Z,75.27
2018-04-09T05:47:54.738Z,81.73
2018-04-09T05:50:22.337Z,84.93
2018-04-09T05:52:49.821Z,76.43
2018-04-09T05:55:17.304Z,77.83
2018-04-09T05:57:44.809Z,78.17
2018-04-09T06:00:12.334Z,73.33
2018-04-09T06:02:39.806Z,71.87
2018-04-09T06:05:07.298Z,70.20
2018-04-09T06:07:34.792Z,71.43
2018-04-09T06:10:02.291Z,67.37
2018-04-09T06:12:29.768Z,64.47
2018-04-09T06:14:57.293Z,61.83
2018-04-09T06:17:24.758Z,62.20
2018-04-09T06:19:52.637Z,75.07
2018-04-09T06:22:20.161Z,65.87
2018-04-09T06:24:47.691Z,60.60
2018-04-09T06:27:15.238Z,64.97
2018-04-09T06:29:42.764Z,55.37
2018-04-09T06:32:10.272Z,58.20
2018-04-09T06:34:37.785Z,57.93
2018-04-09T06:37:05.301Z,59.33
2018-04-09T06:39:32.800Z,54.50
2018-04-09T06:42:00.310Z,57.10
2018-04-09T06:44:27.797Z,57.30
2018-04-09T06:46:55.298Z,57.73
2018-04-09T06:49:22.805Z,54.00
2018-04-09T06:51:50.327Z,55.37
2018-04-09T06:54:17.818Z,55.50
2018-04-09T06:56:45.315Z,56.93
2018-04-09T06:59:12.834Z,53.20
2018-04-09T07:01:40.361Z,52.87
2018-04-09T07:04:07.864Z,55.90
2018-04-09T07:06:35.376Z,55.30
2018-04-09T07:09:02.895Z,50.67
2018-04-09T07:11:30.342Z,53.13
2018-04-09T07:13:57.907Z,51.20
2018-04-09T07:16:25.456Z,52.13
2018-04-09T07:18:53.012Z,55.20
2018-04-09T07:21:20.494Z,54.23
2018-04-09T07:23:47.988Z,48.13
2018-04-09T07:26:15.505Z,50.03
2018-04-09T07:28:43.020Z,50.67
2018-04-09T07:31:10.556Z,52.13
2018-04-09T07:33:38.058Z,51.10
2018-04-09T07:36:05.569Z,49.47
2018-04-09T07:38:33.075Z,49.03
2018-04-09T07:41:00.564Z,45.63
2018-04-09T07:43:28.083Z,49.30
2018-04-09T07:45:55.571Z,48.73
2018-04-09T07:48:23.073Z,52.07
2018-04-09T07:50:50.651Z,47.47
2018-04-09T07:53:18.130Z,48.40
2018-04-09T07:55:45.665Z,49.17
2018-04-09T07:58:13.184Z,47.00
2018-04-09T08:00:40.681Z,50.33
2018-04-09T08:03:08.175Z,47.13
2018-04-09T08:05:35.655Z,47.30
2018-04-09T08:08:03.143Z,47.40
2018-04-09T08:10:30.638Z,51.33
2018-04-09T08:12:58.119Z,48.07
2018-04-09T08:15:25.720Z,48.37
2018-04-09T08:17:53.200Z,47.43
2018-04-09T08:20:20.705Z,49.00
2018-04-09T08:22:48.183Z,53.73
2018-04-09T08:25:15.682Z,48.43
2018-04-09T08:27:43.204Z,48.27
2018-04-09T08:30:10.707Z,51.50
2018-04-09T08:32:38.220Z,47.53
2018-04-09T08:35:05.726Z,48.30
2018-04-09T08:37:33.201Z,48.23
2018-04-09T08:40:01.118Z,50.10
2018-04-09T08:42:29.330Z,51.73
2018-04-09T08:44:56.845Z,47.17
2018-04-09T08:47:26.714Z,45.77
2018-04-09T08:49:54.499Z,46.93
2018-04-09T08:52:22.029Z,46.37
2018-04-09T09:10:13.123Z,49.10
2018-04-09T09:12:40.703Z,48.57
2018-04-09T09:15:08.270Z,41.10
2018-04-09T09:17:35.852Z,46.17
2018-04-09T09:20:03.422Z,48.77
2018-04-09T09:22:31.604Z,43.00
2018-04-09T09:24:59.151Z,43.13
2018-04-09T09:27:27.123Z,42.70
2018-04-09T09:29:54.692Z,41.87
2018-04-09T09:32:22.258Z,39.60
2018-04-09T09:34:49.826Z,40.13
2018-04-09T09:37:17.395Z,40.17
2018-04-09T09:39:45.653Z,38.47
2018-04-09T09:42:13.230Z,40.40
2018-04-09T09:44:40.798Z,44.33
2018-04-09T09:47:09.031Z,39.40
2018-04-09T09:49:36.584Z,42.03
2018-04-09T09:52:04.159Z,41.03
2018-04-09T09:54:32.145Z,48.73
2018-04-09T09:57:00.062Z,44.00
2018-04-09T09:59:27.613Z,46.53
2018-04-09T10:01:55.155Z,45.10
2018-04-09T10:04:22.724Z,40.90
2018-04-09T10:06:50.884Z,45.70
2018-04-09T10:09:18.450Z,43.93
2018-04-09T10:11:45.998Z,50.37
2018-04-09T10:14:14.055Z,46.33
2018-04-09T10:16:41.611Z,43.17
2018-04-09T10:19:09.166Z,43.77
2018-04-09T10:21:37.690Z,44.73
2018-04-09T10:24:05.265Z,38.27
2018-04-09T10:26:32.823Z,40.73
2018-04-09T10:29:00.456Z,39.27
2018-04-09T10:31:28.020Z,41.03
2018-04-09T10:33:55.610Z,41.00
2018-04-09T10:36:23.155Z,40.73
2018-04-09T10:38:50.735Z,34.57
2018-04-09T10:41:18.295Z,32.13
2018-04-09T10:43:45.856Z,36.13
2018-04-09T10:46:13.421Z,34.13
2018-04-09T10:48:40.992Z,46.87
2018-04-09T10:51:08.565Z,39.37
2018-04-09T10:53:36.141Z,36.03
2018-04-09T10:56:03.705Z,35.80
2018-04-09T10:58:31.257Z,37.10
2018-04-09T11:00:59.438Z,39.37
2018-04-09T11:03:26.988Z,30.80
2018-04-09T11:05:54.564Z,32.03
2018-04-09T11:08:22.142Z,29.13
2018-04-09T11:10:49.754Z,30.67
2018-04-09T11:13:17.315Z,31.13
2018-04-09T11:15:44.879Z,29.10
2018-04-09T11:18:12.433Z,28.30
2018-04-09T11:20:39.995Z,31.00
2018-04-09T11:23:07.550Z,32.63
2018-04-09T11:25:35.118Z,33.03
2018-04-09T11:28:02.675Z,38.13
2018-04-09T11:30:30.234Z,36.13
2018-04-09T11:32:57.850Z,35.87
2018-04-09T11:35:25.437Z,33.90
2018-04-09T11:37:53.026Z,34.43
2018-04-09T11:40:20.570Z,48.13
2018-04-09T11:42:48.133Z,35.93
2018-04-09T11:45:15.677Z,35.10
2018-04-09T11:47:43.219Z,33.70
2018-04-09T11:50:10.776Z,35.53
2018-04-09T11:52:38.343Z,31.60
2018-04-09T11:55:05.967Z,29.20
2018-04-09T11:57:33.547Z,30.27
2018-04-09T12:00:01.102Z,29.33
2018-04-09T12:02:28.659Z,27.93
2018-04-09T12:04:56.236Z,30.67
2018-04-09T12:07:23.810Z,30.40
2018-04-09T12:09:51.382Z,32.00
2018-04-09T12:12:18.994Z,34.17
2018-04-09T12:14:46.643Z,34.67
2018-04-09T12:17:14.199Z,35.30
2018-04-09T12:19:41.764Z,34.67
2018-04-09T12:22:09.372Z,34.17
2018-04-09T12:24:36.948Z,32.17
2018-04-09T12:27:04.527Z,36.10
2018-04-09T12:29:32.184Z,38.17
2018-04-09T12:31:59.814Z,34.23
2018-04-09T12:34:27.403Z,36.87
2018-04-09T12:36:54.963Z,31.13
2018-04-09T12:39:22.545Z,32.57
2018-04-09T12:41:50.130Z,35.77
2018-04-09T12:44:17.704Z,32.77
2018-04-09T12:46:45.283Z,34.10
2018-04-09T12:49:12.864Z,33.50
2018-04-09T12:51:40.446Z,33.33
2018-04-09T12:54:08.005Z,34.73
2018-04-09T12:56:35.612Z,30.93
2018-04-09T12:59:03.259Z,26.97
2018-04-09T13:01:30.879Z,24.13
2018-04-09T13:03:58.450Z,30.10
2018-04-09T13:06:25.994Z,29.07
2018-04-09T13:08:53.602Z,30.50
2018-04-09T13:11:21.173Z,36.00
2018-04-09T13:13:48.724Z,31.27
2018-04-09T13:16:16.292Z,37.63
2018-04-09T13:18:43.870Z,30.00
2018-04-09T13:21:12.056Z,28.97
2018-04-09T13:23:39.627Z,29.20
2018-04-09T13:26:07.211Z,31.70
2018-04-09T13:28:34.773Z,30.00
2018-04-09T13:31:02.365Z,31.07
2018-04-09T13:33:29.945Z,31.10
2018-04-09T13:35:57.522Z,29.70
2018-04-09T13:38:25.081Z,35.77
2018-04-09T13:40:52.651Z,29.70
2018-04-09T13:43:20.213Z,28.67
2018-04-09T13:45:47.757Z,29.03
2018-04-09T13:48:15.311Z,31.60
2018-04-09T13:50:42.860Z,32.10
2018-04-09T13:53:10.445Z,31.10
2018-04-09T13:55:39.152Z,31.10
2018-04-09T13:58:06.713Z,36.80
2018-04-09T14:00:34.824Z,34.37
2018-04-09T14:03:02.403Z,32.93
2018-04-09T14:05:30.098Z,31.10
2018-04-09T14:07:57.656Z,30.40
2018-04-09T14:10:26.060Z,28.70
2018-04-09T14:12:53.617Z,33.63
2018-04-09T14:15:21.240Z,33.13
2018-04-09T14:17:48.816Z,39.47
2018-04-09T14:20:16.402Z,35.53
2018-04-09T14:22:43.970Z,36.37
2018-04-09T14:25:11.523Z,37.03
2018-04-09T14:27:39.087Z,44.20
2018-04-09T14:30:06.631Z,34.57
2018-04-09T14:32:34.189Z,31.40
2018-04-09T14:35:01.780Z,44.07
2018-04-09T14:37:29.334Z,33.57
2018-04-09T14:39:56.957Z,38.40
2018-04-09T14:42:24.534Z,34.47
2018-04-09T14:44:52.112Z,34.77
2018-04-09T14:47:19.653Z,31.47
2018-04-09T14:49:47.234Z,31.97
2018-04-09T14:52:14.794Z,36.50
2018-04-09T14:54:42.333Z,41.00
2018-04-09T14:57:09.877Z,37.83
2018-04-09T14:59:37.466Z,42.17
2018-04-09T15:02:05.078Z,40.30
2018-04-09T15:04:32.653Z,36.27
2018-04-09T15:07:00.186Z,39.20
2018-04-09T15:09:27.725Z,37.63
2018-04-09T15:11:55.284Z,38.60
2018-04-09T15:14:22.838Z,37.73
2018-04-09T15:16:50.458Z,37.33
2018-04-09T15:19:18.010Z,38.60
2018-04-09T15:21:45.546Z,42.03
2018-04-09T15:24:13.115Z,41.40
2018-04-09T15:26:40.677Z,39.63
2018-04-09T15:29:08.258Z,42.83
2018-04-09T15:31:35.885Z,40.00
2018-04-09T15:34:03.446Z,49.30
2018-04-09T15:36:31.017Z,36.53
2018-04-09T15:38:58.571Z,41.10
2018-04-09T15:41:26.149Z,35.87
2018-04-09T15:43:53.714Z,39.97
2018-04-09T15:46:21.254Z,37.13
2018-04-09T15:48:48.866Z,32.67
2018-04-09T15:51:16.427Z,36.20
2018-04-09T15:53:43.990Z,35.70
2018-04-09T15:56:11.543Z,31.90
2018-04-09T15:58:39.130Z,35.37
2018-04-09T16:01:06.706Z,30.97
2018-04-09T16:03:34.725Z,32.10
2018-04-09T16:06:02.297Z,31.00
2018-04-09T16:08:29.845Z,33.63
2018-04-09T16:10:57.405Z,32.87
2018-04-09T16:13:24.965Z,30.37
2018-04-09T16:15:52.518Z,33.37
2018-04-09T16:18:20.291Z,30.37
2018-04-09T16:20:47.843Z,32.30
2018-04-09T16:23:15.389Z,33.10
2018-04-09T16:25:46.247Z,33.27
2018-04-09T16:28:13.793Z,33.10
2018-04-09T16:30:41.359Z,31.67
2018-04-09T16:33:08.939Z,29.43
2018-04-09T16:35:36.592Z,32.77
2018-04-09T16:38:04.164Z,33.33
2018-04-09T16:40:31.756Z,39.97
2018-04-09T16:42:59.399Z,35.77
2018-04-09T16:45:26.965Z,35.47
2018-04-09T16:47:54.512Z,35.23
2018-04-09T16:50:22.106Z,33.70
2018-04-09T16:52:49.689Z,33.50
2018-04-09T16:55:17.266Z,36.57
2018-04-09T16:57:44.883Z,37.47
2018-04-09T17:00:12.451Z,38.10
2018-04-09T17:02:40.032Z,38.67
2018-04-09T17:05:07.631Z,38.30
2018-04-09T17:07:35.177Z,37.70
2018-04-09T17:10:02.749Z,35.77
2018-04-09T17:12:30.377Z,40.57
2018-04-09T17:14:58.801Z,40.80
2018-04-09T17:17:27.375Z,36.20
2018-04-09T17:19:57.186Z,37.83
2018-04-09T17:22:24.742Z,37.63
2018-04-09T17:24:52.299Z,40.03
2018-04-09T17:27:19.878Z,40.83
2018-04-09T17:29:47.603Z,38.53
2018-04-09T17:32:16.645Z,42.60
2018-04-09T17:34:45.316Z,39.53
2018-04-09T17:37:19.533Z,36.93
2018-04-09T17:39:47.129Z,38.00
2018-04-09T17:42:14.717Z,38.30
2018-04-09T17:44:42.958Z,44.90
2018-04-09T17:47:10.519Z,39.73
2018-04-09T17:49:38.155Z,37.97
2018-04-09T17:52:16.456Z,45.27
2018-04-09T17:54:44.013Z,40.77
2018-04-09T17:57:22.387Z,38.90
2018-04-09T17:59:49.937Z,36.30
2018-04-09T18:02:18.857Z,34.90
2018-04-09T18:04:46.425Z,37.27
2018-04-09T18:07:17.377Z,37.10
2018-04-09T18:09:44.990Z,33.20
2018-04-09T18:12:12.557Z,28.90
2018-04-09T18:14:40.209Z,43.13
2018-04-09T18:17:07.773Z,29.70
2018-04-09T18:19:35.365Z,30.57
2018-04-09T18:22:02.945Z,35.70
2018-04-09T18:24:30.527Z,33.73
2018-04-09T18:26:58.103Z,30.87
2018-04-09T18:29:25.738Z,30.17
2018-04-09T18:31:53.381Z,31.30
2018-04-09T18:34:20.979Z,31.87
2018-04-09T18:36:48.582Z,33.63
2018-04-09T18:39:16.150Z,35.63
2018-04-09T18:41:43.715Z,29.97
2018-04-09T18:44:11.284Z,36.03
2018-04-09T18:46:38.877Z,35.43
2018-04-09T18:49:06.464Z,32.37
2018-04-09T18:51:34.027Z,33.47
2018-04-09T18:54:01.567Z,30.63
2018-04-09T18:56:29.139Z,34.43
2018-04-09T18:58:56.679Z,31.77
2018-04-09T19:01:24.310Z,32.07
2018-04-09T19:03:51.877Z,30.63
2018-04-09T19:06:19.627Z,31.80
2018-04-09T19:08:48.998Z,29.07
2018-04-09T19:11:16.553Z,33.47
2018-04-09T19:13:44.276Z,33.87
2018-04-09T19:16:11.857Z,29.73
2018-04-09T19:18:39.419Z,27.60
2018-04-09T19:21:06.986Z,30.17
2018-04-09T19:23:35.382Z,31.90
2018-04-09T19:26:03.053Z,31.80
2018-04-09T19:28:31.004Z,31.77
2018-04-09T19:31:16.125Z,28.50
2018-04-09T19:33:46.572Z,28.40
2018-04-09T19:52:57.200Z,32.37
2018-04-09T19:55:24.811Z,28.33
2018-04-09T19:57:52.362Z,27.07
2018-04-09T20:00:20.026Z,28.93
2018-04-09T20:02:47.622Z,29.10
2018-04-09T20:05:15.266Z,28.57
2018-04-09T20:07:42.875Z,27.93
2018-04-09T20:10:10.483Z,33.10
2018-04-09T20:12:38.102Z,33.47
2018-04-09T20:15:05.692Z,28.13
2018-04-09T20:17:33.356Z,32.67
2018-04-09T20:20:01.085Z,34.60
2018-04-09T20:22:28.677Z,26.07
2018-04-09T20:24:56.230Z,28.60
2018-04-09T20:27:23.786Z,30.67
2018-04-09T20:29:51.363Z,26.10
2018-04-09T20:32:19.528Z,25.67
2018-04-09T20:34:47.088Z,32.67
2018-04-09T20:37:14.755Z,28.60
2018-04-09T20:39:42.394Z,30.63
2018-04-09T20:42:10.016Z,28.50
2018-04-09T20:44:37.594Z,28.53
2018-04-09T20:47:05.200Z,30.13
2018-04-09T20:49:32.802Z,29.30
2018-04-09T20:52:00.477Z,30.20
2018-04-09T20:54:35.393Z,31.10
2018-04-09T20:57:04.400Z,31.73
2018-04-09T20:59:32.033Z,35.00
2018-04-09T21:01:59.604Z,37.10
2018-04-09T21:04:27.179Z,33.20
2018-04-09T21:06:54.813Z,34.07
2018-04-09T21:09:22.411Z,34.53
2018-04-09T21:11:49.972Z,30.20
2018-04-09T21:14:17.580Z,37.33
2018-04-09T21:16:45.161Z,33.70
2018-04-09T21:19:12.729Z,32.17
2018-04-09T21:21:40.285Z,32.50
2018-04-09T21:24:07.863Z,31.57
2018-04-09T21:26:35.430Z,34.67
2018-04-09T21:29:02.991Z,33.10
2018-04-09T21:31:30.583Z,34.27
2018-04-09T21:33:58.170Z,32.90
2018-04-09T21:36:25.748Z,30.77
2018-04-09T21:38:53.348Z,31.60
2018-04-09T21:41:20.907Z,34.23
2018-04-09T21:43:48.474Z,32.83
2018-04-09T21:46:16.072Z,37.37
2018-04-09T21:48:43.643Z,34.33
2018-04-09T21:51:11.209Z,37.17
2018-04-09T21:53:38.774Z,38.60
2018-04-09T21:56:06.344Z,40.20
2018-04-09T21:58:33.928Z,32.30
2018-04-09T22:01:02.084Z,36.37
2018-04-09T22:03:29.647Z,32.43
2018-04-09T22:05:57.193Z,37.20
2018-04-09T22:08:24.734Z,35.77
2018-04-09T22:10:52.271Z,34.83
2018-04-09T22:13:19.811Z,37.67
2018-04-09T22:15:47.359Z,36.30
2018-04-09T22:18:14.914Z,35.47
2018-04-09T22:20:42.486Z,35.77
2018-04-09T22:23:10.033Z,39.63
2018-04-09T22:25:37.592Z,37.63
2018-04-09T22:28:05.143Z,34.63
2018-04-09T22:30:32.701Z,36.43
2018-04-09T22:33:00.304Z,35.77
2018-04-09T22:35:27.858Z,36.97
2018-04-09T22:37:55.452Z,36.80
2018-04-09T22:40:22.989Z,38.77
2018-04-09T22:42:50.562Z,35.67
2018-04-09T22:45:18.128Z,37.67
2018-04-09T22:47:45.719Z,31.60
2018-04-09T22:50:13.303Z,36.97
2018-04-09T22:52:40.873Z,35.40
2018-04-09T22:55:08.464Z,34.67
2018-04-09T22:57:36.024Z,33.53
2018-04-09T23:00:03.598Z,33.50
2018-04-09T23:02:31.154Z,35.03
2018-04-09T23:04:58.696Z,39.73
2018-04-09T23:07:26.255Z,38.00
2018-04-09T23:09:53.865Z,36.37
2018-04-09T23:12:21.474Z,34.50
2018-04-09T23:14:49.111Z,35.03
2018-04-09T23:17:17.069Z,31.20
2018-04-09T23:19:44.625Z,35.33
2018-04-09T23:22:12.207Z,36.37
2018-04-09T23:24:39.775Z,35.27
2018-04-09T23:27:07.434Z,36.40
2018-04-09T23:29:34.955Z,38.20
2018-04-09T23:32:02.498Z,36.73
2018-04-09T23:34:30.051Z,44.10
2018-04-09T23:36:57.605Z,40.60
2018-04-09T23:39:25.155Z,44.43
2018-04-09T23:41:52.745Z,39.77
2018-04-09T23:44:20.303Z,44.30
2018-04-09T23:46:47.855Z,41.83
2018-04-09T23:49:15.423Z,38.70
2018-04-09T23:51:42.977Z,40.23
2018-04-09T23:54:10.539Z,37.97
2018-04-09T23:56:38.117Z,39.33
2018-04-09T23:59:05.713Z,41.80
